Leota, Minnesota
Current Conditions -  °F | °C
As of 4:54 AM on Wednesday 22 Oct 2014 (Local Time) from KDVP Reporting Station
Overcast Overcast  
Wind Chill: 50°   Ceiling: 4100
Heat Index: 50°   Visibility: 10mi
Dew Point: 41°   Wind: 16mph
Humidity: 72%   Direction: 150°SSE
Pressure: 30.06"   Gusts: NA
Location:  43.83°N, 96.01°W
Report Text: KDVP 220954Z AUTO 15014KT 10SM BKN041 OVC049 10/05 A3006 RMK AO2 T01000052
Loading
Personal Weather Stations






























Interactive Weather Map
Tropical Storm Tracking
New forecast layout! Learn more

10-Day Weather Forecast

Advertisements
Track Severe Weather on mobile